Wausau, Florida
Current Conditions -  °F | °C
As of 1:53 PM on Wednesday 17 Dec 2014 (Local Time) from KECP Reporting Station
Clear Clear  
Wind Chill: 59°   Ceiling: Unl
Heat Index: 59°   Visibility: 10mi
Dew Point: 44°   Wind: 8mph
Humidity: 58%   Direction: 170°S
Pressure: 30.15"   Gusts: NA
Location:  30.63°N, 85.59°W
Report Text: KECP 171953Z 17007KT 10SM CLR 15/07 A3015 RMK AO2 SLP221 T01500067 $
Loading
Personal Weather Stations






























Interactive Weather Map New forecast layout! Learn more

10-Day Weather Forecast

Advertisements
Track Severe Weather on mobile